Gaschem Phoenix — ELUO6 — position and weather

sailwx.info

Track history (hours):
 
Tides and Currents Weather Stations Pressure Air Temp Water Temp Dewpoint Dewpoint Depression Visibility Wind Speed Wind Dir Waves Ship Positions

Gaschem Phoenix

Last reported at 2017-Mar-09 01:29 UTC. Time now 2017-Mar-23 18:26 UTC.
Position N 34°57' E 139°26'.
Warning: this ship's position is 14 days out of date.

Length 100 m; draft 5.8 m.

Type: Ship. MMSI: 636090235.

Date/timePositionNaut miles runAvg speedWind from/ knotsBaromVisibWave heightAir tempDewpointWater temp
2017-Mar-09 01:29N 34°57' E 139°26'1212.9
2017-Mar-09 00:33N 35°04' E 139°39'1212.3
2017-Mar-08 23:33N 35°14' E 139°46'1111.1
2017-Mar-08 22:33N 35°25' E 139°44'6 6.1
2017-Mar-08 21:33N 35°31' E 139°46'0 0.0
2017-Mar-08 20:15N 35°31' E 139°46'1 0.1
2017-Mar-08 03:33N 35°30' E 139°45'3 2.6
2017-Mar-08 02:31N 35°28' E 139°44'0 0.1
2017-Mar-08 01:31N 35°28' E 139°44'0 0.1
2017-Mar-08 00:33N 35°28' E 139°44'0 0.0
2017-Mar-07 23:33N 35°28' E 139°44'0 0.1
2017-Mar-07 22:29N 35°28' E 139°44'0 0.1
2017-Mar-07 21:32N 35°28' E 139°44'0 0.0
2017-Mar-07 20:31N 35°28' E 139°44'0 0.0
2017-Mar-07 19:31N 35°28' E 139°44'0 0.0
2017-Mar-07 18:31N 35°28' E 139°44'0 0.0
2017-Mar-07 17:33N 35°28' E 139°44'0 0.0
2017-Mar-07 16:33N 35°28' E 139°44'0 0.1
2017-Mar-07 15:32N 35°28' E 139°44'0 0.0
2017-Mar-07 14:32N 35°28' E 139°44'0 0.0
2017-Mar-07 13:31N 35°28' E 139°44'0 0.0
2017-Mar-07 12:31N 35°28' E 139°44'0 0.1
2017-Mar-07 11:34N 35°28' E 139°44'0 0.0
2017-Mar-07 10:33N 35°28' E 139°44'0 0.0
2017-Mar-07 09:33N 35°28' E 139°44'0 0.0
2017-Mar-07 08:32N 35°28' E 139°44'0 0.0
2017-Mar-07 07:32N 35°28' E 139°44'0 0.1
2017-Mar-07 06:31N 35°28' E 139°44'0 0.1
2017-Mar-07 05:32N 35°28' E 139°44'0 0.0
2017-Mar-07 04:31N 35°28' E 139°44'0 0.0
2017-Mar-07 03:31N 35°28' E 139°44'0 0.0
2017-Mar-07 02:33N 35°28' E 139°44'0 0.1
2017-Mar-07 01:33N 35°28' E 139°44'8 7.8
2017-Mar-07 00:33N 35°20' E 139°44'1010.5
2017-Mar-06 23:33N 35°10' E 139°46'9 9.0
2017-Mar-06 22:33N 35°02' E 139°40'10 9.7
2017-Mar-06 21:33N 34°58' E 139°29'  
Track history (hours):
 
Tides and Currents Weather Stations Pressure Air Temp Water Temp Dewpoint Dewpoint Depression Visibility Wind Speed Wind Dir Waves Ship Positions

Gaschem Phoenix

Last reported at 2017-Mar-09 01:29 UTC. Time now 2017-Mar-23 18:26 UTC.
Position N 34°57' E 139°26'.
Warning: this ship's position is 14 days out of date.

Length 100 m; draft 5.8 m.

Type: Ship. MMSI: 636090235.

Date/timePositionNaut miles runAvg speedWind from/ knotsBaromVisibWave heightAir tempDewpointWater temp
2017-Mar-09 01:29N 34°57' E 139°26'1212.9
2017-Mar-09 00:33N 35°04' E 139°39'1212.3
2017-Mar-08 23:33N 35°14' E 139°46'1111.1
2017-Mar-08 22:33N 35°25' E 139°44'6 6.1
2017-Mar-08 21:33N 35°31' E 139°46'0 0.0
2017-Mar-08 20:15N 35°31' E 139°46'1 0.1
2017-Mar-08 03:33N 35°30' E 139°45'3 2.6
2017-Mar-08 02:31N 35°28' E 139°44'0 0.1
2017-Mar-08 01:31N 35°28' E 139°44'0 0.1
2017-Mar-08 00:33N 35°28' E 139°44'0 0.0
2017-Mar-07 23:33N 35°28' E 139°44'0 0.1
2017-Mar-07 22:29N 35°28' E 139°44'0 0.1
2017-Mar-07 21:32N 35°28' E 139°44'0 0.0
2017-Mar-07 20:31N 35°28' E 139°44'0 0.0
2017-Mar-07 19:31N 35°28' E 139°44'0 0.0
2017-Mar-07 18:31N 35°28' E 139°44'0 0.0
2017-Mar-07 17:33N 35°28' E 139°44'0 0.0
2017-Mar-07 16:33N 35°28' E 139°44'0 0.1
2017-Mar-07 15:32N 35°28' E 139°44'0 0.0
2017-Mar-07 14:32N 35°28' E 139°44'0 0.0
2017-Mar-07 13:31N 35°28' E 139°44'0 0.0
2017-Mar-07 12:31N 35°28' E 139°44'0 0.1
2017-Mar-07 11:34N 35°28' E 139°44'0 0.0
2017-Mar-07 10:33N 35°28' E 139°44'0 0.0
2017-Mar-07 09:33N 35°28' E 139°44'0 0.0
2017-Mar-07 08:32N 35°28' E 139°44'0 0.0
2017-Mar-07 07:32N 35°28' E 139°44'0 0.1
2017-Mar-07 06:31N 35°28' E 139°44'0 0.1
2017-Mar-07 05:32N 35°28' E 139°44'0 0.0
2017-Mar-07 04:31N 35°28' E 139°44'0 0.0
2017-Mar-07 03:31N 35°28' E 139°44'0 0.0
2017-Mar-07 02:33N 35°28' E 139°44'0 0.1
2017-Mar-07 01:33N 35°28' E 139°44'8 7.8
2017-Mar-07 00:33N 35°20' E 139°44'1010.5
2017-Mar-06 23:33N 35°10' E 139°46'9 9.0
2017-Mar-06 22:33N 35°02' E 139°40'10 9.7
2017-Mar-06 21:33N 34°58' E 139°29'  

Dump ship's entire track history